createdAt,value
2018-12-11T00:01:41.014Z,5.77
2018-12-11T00:04:09.325Z,4.70
2018-12-11T00:06:42.027Z,14.33
2018-12-11T00:09:17.818Z,15.77
2018-12-11T00:11:46.466Z,27.93
2018-12-11T00:14:15.065Z,5.90
2018-12-11T00:16:43.725Z,6.30
2018-12-11T00:19:12.388Z,9.60
2018-12-11T00:21:40.985Z,12.63
2018-12-11T00:24:10.769Z,8.87
2018-12-11T00:26:44.261Z,6.13
2018-12-11T00:29:18.574Z,11.47
2018-12-11T00:31:52.423Z,7.33
2018-12-11T00:34:23.645Z,5.63
2018-12-11T00:36:53.798Z,12.30
2018-12-11T00:39:26.263Z,4.70
2018-12-11T00:41:56.753Z,5.20
2018-12-11T00:44:25.710Z,4.60
2018-12-11T00:46:54.725Z,4.80
2018-12-11T00:49:25.644Z,7.67
2018-12-11T00:51:54.483Z,6.03
2018-12-11T00:54:23.749Z,4.10
2018-12-11T00:57:15.646Z,4.47
2018-12-11T00:59:44.413Z,24.03
2018-12-11T01:02:13.069Z,8.00
2018-12-11T01:04:41.688Z,5.10
2018-12-11T01:07:10.305Z,4.47
2018-12-11T01:09:38.964Z,3.80
2018-12-11T01:12:07.614Z,5.30
2018-12-11T01:14:36.207Z,9.13
2018-12-11T01:17:04.959Z,4.77
2018-12-11T01:19:33.583Z,3.70
2018-12-11T01:22:02.471Z,4.23
2018-12-11T01:24:31.095Z,4.07
2018-12-11T01:26:59.827Z,6.47
2018-12-11T01:29:28.554Z,5.47
2018-12-11T01:31:57.149Z,5.13
2018-12-11T01:34:25.806Z,3.67
2018-12-11T01:36:54.435Z,3.10
2018-12-11T01:39:23.052Z,3.73
2018-12-11T01:41:51.745Z,5.63
2018-12-11T01:44:20.549Z,5.00
2018-12-11T01:46:49.152Z,6.33
2018-12-11T01:49:17.768Z,3.00
2018-12-11T01:51:46.942Z,3.73
2018-12-11T01:54:15.933Z,3.77
2018-12-11T01:56:44.561Z,4.73
2018-12-11T01:59:13.662Z,3.10
2018-12-11T02:01:48.424Z,4.77
2018-12-11T02:04:17.041Z,2.93
2018-12-11T02:06:45.666Z,4.23
2018-12-11T02:09:14.294Z,4.50
2018-12-11T02:11:43.400Z,2.67
2018-12-11T02:14:12.537Z,4.47
2018-12-11T02:16:41.197Z,3.77
2018-12-11T02:19:09.805Z,2.50
2018-12-11T02:21:42.026Z,4.77
2018-12-11T02:24:09.020Z,3.47
2018-12-11T02:26:37.729Z,4.13
2018-12-11T02:29:06.365Z,2.30
2018-12-11T02:31:34.996Z,2.90
2018-12-11T02:34:03.627Z,2.53
2018-12-11T02:36:32.321Z,2.93
2018-12-11T02:39:00.985Z,2.43
2018-12-11T02:41:29.935Z,2.73
2018-12-11T02:43:59.629Z,5.47
2018-12-11T02:46:28.241Z,3.47
2018-12-11T02:48:57.365Z,4.43
2018-12-11T02:51:25.987Z,2.77
2018-12-11T02:53:54.594Z,2.90
2018-12-11T02:56:23.538Z,2.40
2018-12-11T02:58:52.166Z,2.33
2018-12-11T03:01:20.779Z,3.73
2018-12-11T03:03:49.442Z,3.03
2018-12-11T03:06:18.069Z,3.47
2018-12-11T03:08:46.729Z,2.43
2018-12-11T03:11:15.335Z,1.97
2018-12-11T03:13:43.971Z,4.30
2018-12-11T03:16:12.586Z,4.07
2018-12-11T03:18:41.212Z,2.33
2018-12-11T03:21:09.867Z,2.27
2018-12-11T03:23:38.478Z,4.77
2018-12-11T03:26:07.162Z,3.63
2018-12-11T03:28:35.867Z,3.77
2018-12-11T03:31:04.536Z,2.93
2018-12-11T03:33:33.139Z,2.60
2018-12-11T03:36:01.736Z,3.03
2018-12-11T03:38:30.329Z,3.97
2018-12-11T03:40:58.938Z,3.93
2018-12-11T03:43:27.576Z,3.17
2018-12-11T03:45:56.222Z,3.83
2018-12-11T03:48:26.616Z,2.87
2018-12-11T03:50:55.276Z,3.93
2018-12-11T03:53:23.947Z,2.73
2018-12-11T03:55:52.592Z,2.13
2018-12-11T03:58:21.432Z,3.87
2018-12-11T04:00:50.026Z,4.03
2018-12-11T04:03:18.709Z,3.97
2018-12-11T04:05:47.322Z,3.10
2018-12-11T04:08:15.936Z,2.47
2018-12-11T04:10:44.544Z,4.23
2018-12-11T04:13:13.354Z,3.37
2018-12-11T04:15:41.980Z,2.23
2018-12-11T04:18:10.569Z,3.90
2018-12-11T04:20:39.173Z,2.90
2018-12-11T04:23:08.384Z,2.53
2018-12-11T04:25:37.587Z,4.00
2018-12-11T04:28:06.255Z,2.17
2018-12-11T04:30:34.877Z,4.17
2018-12-11T04:33:03.498Z,3.43
2018-12-11T04:35:32.101Z,2.77
2018-12-11T04:38:00.755Z,3.77
2018-12-11T04:40:29.388Z,2.30
2018-12-11T04:42:58.035Z,2.30
2018-12-11T04:45:26.641Z,3.63
2018-12-11T04:47:55.308Z,3.97
2018-12-11T04:50:23.561Z,3.63
2018-12-11T04:52:52.460Z,4.23
2018-12-11T04:55:21.055Z,4.17
2018-12-11T04:57:49.706Z,5.03
2018-12-11T05:00:18.323Z,3.80
2018-12-11T05:02:46.920Z,2.87
2018-12-11T05:05:15.606Z,4.03
2018-12-11T05:07:44.242Z,3.87
2018-12-11T05:10:12.902Z,3.37
2018-12-11T05:12:41.566Z,3.10
2018-12-11T05:15:10.589Z,2.67
2018-12-11T05:17:39.226Z,4.93
2018-12-11T05:20:07.858Z,4.93
2018-12-11T05:22:36.515Z,2.67
2018-12-11T05:25:06.061Z,2.97
2018-12-11T05:27:34.726Z,4.40
2018-12-11T05:30:03.397Z,2.53
2018-12-11T05:32:31.987Z,2.93
2018-12-11T05:35:00.605Z,2.53
2018-12-11T05:37:29.403Z,2.70
2018-12-11T05:39:58.048Z,3.83
2018-12-11T05:42:26.673Z,4.77
2018-12-11T05:44:55.289Z,2.53
2018-12-11T05:47:23.984Z,2.73
2018-12-11T05:49:53.263Z,3.73
2018-12-11T05:52:21.965Z,3.83
2018-12-11T05:54:50.632Z,4.67
2018-12-11T05:57:19.303Z,6.17
2018-12-11T05:59:47.925Z,2.67
2018-12-11T06:02:16.571Z,4.07
2018-12-11T06:04:45.225Z,2.67
2018-12-11T06:07:13.814Z,3.33
2018-12-11T06:09:42.475Z,3.77
2018-12-11T06:12:11.109Z,5.83
2018-12-11T06:14:39.737Z,2.97
2018-12-11T06:17:08.413Z,3.53
2018-12-11T06:19:37.010Z,6.63
2018-12-11T06:22:05.592Z,7.87
2018-12-11T06:24:34.249Z,10.63
2018-12-11T06:27:03.007Z,5.73
2018-12-11T06:29:31.622Z,8.20
2018-12-11T06:32:00.356Z,5.03
2018-12-11T06:34:29.631Z,18.83
2018-12-11T06:36:58.277Z,6.47
2018-12-11T06:39:26.880Z,3.27
2018-12-11T06:41:56.386Z,16.87
2018-12-11T06:44:24.993Z,4.20
2018-12-11T06:46:54.262Z,10.27
2018-12-11T06:49:23.534Z,2.83
2018-12-11T06:51:52.201Z,4.53
2018-12-11T06:54:20.854Z,3.97
2018-12-11T06:56:49.491Z,3.03
2018-12-11T06:59:18.100Z,4.63
2018-12-11T07:01:46.715Z,4.70
2018-12-11T07:04:15.360Z,2.73
2018-12-11T07:06:44.015Z,6.00
2018-12-11T07:09:12.667Z,3.97
2018-12-11T07:11:41.301Z,3.07
2018-12-11T07:14:09.941Z,3.43
2018-12-11T07:16:38.580Z,2.90
2018-12-11T07:19:07.222Z,3.77
2018-12-11T07:21:35.845Z,3.70
2018-12-11T07:24:04.502Z,4.07
2018-12-11T07:26:33.156Z,5.33
2018-12-11T07:29:01.768Z,4.53
2018-12-11T07:31:30.406Z,5.90
2018-12-11T07:33:59.883Z,8.73
2018-12-11T07:36:28.539Z,9.10
2018-12-11T07:38:57.594Z,3.73
2018-12-11T07:41:26.223Z,7.10
2018-12-11T07:43:54.845Z,7.67
2018-12-11T07:46:23.500Z,7.30
2018-12-11T07:48:52.137Z,9.63
2018-12-11T07:51:20.762Z,9.73
2018-12-11T07:53:49.928Z,9.63
2018-12-11T07:56:18.512Z,9.83
2018-12-11T07:58:47.126Z,17.77
2018-12-11T08:01:15.782Z,6.33
2018-12-11T08:03:44.436Z,10.10
2018-12-11T08:06:13.039Z,9.80
2018-12-11T08:08:41.682Z,13.70
2018-12-11T08:11:10.313Z,9.83
2018-12-11T08:13:38.973Z,6.77
2018-12-11T08:16:07.596Z,5.40
2018-12-11T08:18:36.229Z,6.27
2018-12-11T08:21:04.858Z,9.07
2018-12-11T08:23:33.464Z,6.03
2018-12-11T08:26:02.130Z,17.33
2018-12-11T08:28:30.778Z,9.73
2018-12-11T08:30:59.392Z,7.77
2018-12-11T08:33:45.585Z,8.23
2018-12-11T08:36:14.476Z,12.53
2018-12-11T08:38:43.072Z,13.13
2018-12-11T08:41:11.724Z,8.50
2018-12-11T08:43:40.530Z,8.57
2018-12-11T08:46:09.167Z,7.93
2018-12-11T08:48:37.802Z,8.33
2018-12-11T08:51:06.451Z,7.30
2018-12-11T08:53:35.080Z,7.40
2018-12-11T08:56:03.684Z,8.83
2018-12-11T08:58:32.333Z,12.43
2018-12-11T09:01:00.954Z,6.07
2018-12-11T09:03:30.074Z,7.30
2018-12-11T09:05:59.682Z,9.27
2018-12-11T09:08:28.625Z,8.17
2018-12-11T09:10:57.314Z,5.43
2018-12-11T09:13:25.955Z,5.17
2018-12-11T09:15:54.625Z,6.77
2018-12-11T09:18:23.268Z,8.20
2018-12-11T09:20:51.922Z,5.27
2018-12-11T09:23:20.544Z,10.73
2018-12-11T09:25:51.045Z,7.00
2018-12-11T09:28:19.801Z,8.00
2018-12-11T09:30:48.409Z,7.33
2018-12-11T09:33:17.090Z,4.43
2018-12-11T09:35:45.756Z,4.83
2018-12-11T09:38:14.408Z,5.13
2018-12-11T09:40:43.047Z,6.50
2018-12-11T09:43:11.648Z,4.27
2018-12-11T09:45:40.278Z,3.63
2018-12-11T09:48:10.442Z,6.47
2018-12-11T09:50:39.050Z,5.90
2018-12-11T09:53:07.687Z,5.93
2018-12-11T09:55:36.371Z,6.90
2018-12-11T09:58:05.008Z,5.43
2018-12-11T10:00:33.738Z,7.67
2018-12-11T10:03:02.494Z,7.50
2018-12-11T10:05:31.159Z,7.07
2018-12-11T10:07:59.776Z,5.97
2018-12-11T10:10:28.433Z,5.37
2018-12-11T10:12:57.105Z,4.83
2018-12-11T10:15:25.732Z,7.30
2018-12-11T10:17:54.406Z,5.80
2018-12-11T10:20:23.408Z,4.53
2018-12-11T10:22:52.072Z,8.53
2018-12-11T10:25:20.682Z,5.83
2018-12-11T10:27:49.372Z,4.30
2018-12-11T10:30:18.156Z,6.43
2018-12-11T10:32:51.241Z,4.93
2018-12-11T10:35:19.902Z,5.93
2018-12-11T10:37:48.534Z,4.10
2018-12-11T10:40:17.207Z,4.67
2018-12-11T10:42:45.937Z,5.67
2018-12-11T10:45:14.623Z,5.23
2018-12-11T10:47:43.246Z,3.97
2018-12-11T10:50:11.884Z,8.27
2018-12-11T10:52:40.798Z,4.93
2018-12-11T10:55:09.414Z,6.83
2018-12-11T10:57:38.011Z,5.80
2018-12-11T11:00:09.078Z,4.83
2018-12-11T11:02:42.017Z,5.70
2018-12-11T11:05:10.740Z,5.93
2018-12-11T11:07:39.762Z,3.17
2018-12-11T11:10:08.494Z,6.50
2018-12-11T11:12:37.862Z,5.03
2018-12-11T11:15:07.941Z,5.87
2018-12-11T11:17:36.641Z,5.10
2018-12-11T11:20:05.714Z,4.40
2018-12-11T11:22:34.364Z,3.77
2018-12-11T11:25:03.038Z,3.67
2018-12-11T11:27:32.290Z,5.20
2018-12-11T11:30:01.281Z,2.93
2018-12-11T11:32:29.938Z,5.40
2018-12-11T11:34:58.685Z,4.87
2018-12-11T11:37:27.405Z,5.43
2018-12-11T11:39:56.122Z,3.47
2018-12-11T11:42:25.070Z,4.67
2018-12-11T11:44:54.086Z,4.60
2018-12-11T11:47:22.806Z,3.50
2018-12-11T11:49:51.432Z,3.17
2018-12-11T11:52:20.089Z,4.03
2018-12-11T11:54:48.818Z,3.20
2018-12-11T11:57:17.540Z,3.43
2018-12-11T11:59:46.832Z,4.70
2018-12-11T12:02:15.456Z,3.87
2018-12-11T12:04:44.684Z,2.93
2018-12-11T12:07:13.394Z,3.97
2018-12-11T12:09:42.110Z,4.33
2018-12-11T12:12:10.766Z,3.80
2018-12-11T12:14:39.811Z,4.37
2018-12-11T12:17:08.482Z,3.60
2018-12-11T12:19:38.465Z,3.33
2018-12-11T12:22:07.261Z,4.07
2018-12-11T12:24:44.214Z,4.90
2018-12-11T12:27:27.332Z,4.17
2018-12-11T12:32:49.787Z,4.87
2018-12-11T12:35:18.510Z,3.23
2018-12-11T12:37:47.881Z,6.30
2018-12-11T12:40:16.501Z,3.67
2018-12-11T12:42:45.327Z,3.07
2018-12-11T12:45:13.953Z,2.97
2018-12-11T12:47:42.266Z,4.27
2018-12-11T12:50:10.997Z,3.50
2018-12-11T12:52:40.774Z,2.47
2018-12-11T12:55:09.761Z,2.97
2018-12-11T12:57:38.513Z,2.83
2018-12-11T13:00:09.096Z,3.80
2018-12-11T13:02:38.051Z,3.27
2018-12-11T13:05:06.749Z,3.73
2018-12-11T13:07:35.392Z,3.57
2018-12-11T13:10:04.045Z,3.57
2018-12-11T13:12:32.902Z,2.67
2018-12-11T13:15:07.102Z,3.13
2018-12-11T13:17:32.166Z,3.13
2018-12-11T13:20:00.867Z,2.93
2018-12-11T13:22:29.526Z,2.50
2018-12-11T13:24:58.462Z,2.20
2018-12-11T13:27:27.108Z,2.83
2018-12-11T13:29:55.738Z,5.03
2018-12-11T13:32:24.381Z,4.73
2018-12-11T13:34:52.995Z,4.37
2018-12-11T13:37:21.953Z,2.67
2018-12-11T13:39:50.608Z,3.37
2018-12-11T13:42:19.265Z,2.23
2018-12-11T13:44:47.903Z,2.53
2018-12-11T13:47:16.600Z,3.70
2018-12-11T13:49:45.743Z,3.47
2018-12-11T13:52:14.386Z,2.40
2018-12-11T13:54:43.490Z,3.80
2018-12-11T13:57:12.114Z,1.93
2018-12-11T13:59:42.177Z,3.17
2018-12-11T14:02:11.658Z,2.37
2018-12-11T14:04:40.351Z,3.60
2018-12-11T14:07:09.012Z,2.67
2018-12-11T14:09:39.339Z,2.67
2018-12-11T14:12:08.190Z,3.37
2018-12-11T14:14:39.870Z,3.77
2018-12-11T14:17:08.517Z,1.77
2018-12-11T14:19:37.157Z,4.27
2018-12-11T14:22:05.866Z,2.30
2018-12-11T14:24:34.517Z,1.87
2018-12-11T14:27:03.109Z,2.80
2018-12-11T14:29:31.745Z,2.53
2018-12-11T14:32:00.653Z,2.23
2018-12-11T14:34:29.313Z,2.80
2018-12-11T14:36:57.951Z,2.07
2018-12-11T14:39:26.579Z,2.37
2018-12-11T14:41:55.182Z,3.00
2018-12-11T14:44:23.827Z,2.20
2018-12-11T14:46:52.481Z,1.33
2018-12-11T14:49:21.116Z,2.10
2018-12-11T14:51:50.398Z,2.07
2018-12-11T14:54:19.371Z,1.93
2018-12-11T14:56:48.033Z,2.13
2018-12-11T14:59:17.447Z,1.87
2018-12-11T15:01:46.052Z,4.90
2018-12-11T15:04:14.723Z,2.50
2018-12-11T15:06:43.359Z,2.83
2018-12-11T15:09:17.196Z,2.73
2018-12-11T15:11:45.837Z,1.63
2018-12-11T15:14:14.483Z,1.97
2018-12-11T15:16:43.073Z,2.60
2018-12-11T15:19:11.715Z,2.20
2018-12-11T15:21:41.019Z,2.37
2018-12-11T15:24:09.682Z,1.93
2018-12-11T15:26:38.387Z,2.60
2018-12-11T15:29:07.027Z,1.77
2018-12-11T15:31:35.662Z,2.00
2018-12-11T15:34:04.279Z,1.97
2018-12-11T15:36:33.354Z,3.97
2018-12-11T15:39:01.966Z,1.17
2018-12-11T15:41:30.556Z,4.37
2018-12-11T15:43:59.163Z,1.60
2018-12-11T15:46:28.254Z,3.40
2018-12-11T15:48:56.901Z,2.00
2018-12-11T15:51:25.525Z,2.13
2018-12-11T15:53:54.184Z,2.20
2018-12-11T15:56:23.049Z,2.47
2018-12-11T15:58:52.447Z,2.13
2018-12-11T16:01:21.555Z,1.73
2018-12-11T16:03:50.858Z,3.03
2018-12-11T16:06:20.596Z,8.07
2018-12-11T16:08:49.201Z,7.40
2018-12-11T16:11:17.923Z,1.13
2018-12-11T16:13:46.568Z,3.57
2018-12-11T16:16:15.212Z,5.17
2018-12-11T16:18:43.851Z,7.17
2018-12-11T16:21:12.525Z,6.73
2018-12-11T16:23:41.143Z,7.43
2018-12-11T16:26:09.761Z,6.20
2018-12-11T16:28:38.403Z,4.67
2018-12-11T16:31:07.080Z,4.50
2018-12-11T16:33:35.682Z,7.23
2018-12-11T16:36:04.353Z,12.77
2018-12-11T16:38:32.969Z,19.40
2018-12-11T16:41:01.616Z,11.03
2018-12-11T16:43:30.272Z,6.83
2018-12-11T16:45:58.874Z,8.23
2018-12-11T16:48:28.297Z,6.90
2018-12-11T16:50:57.053Z,6.60
2018-12-11T16:53:25.655Z,4.63
2018-12-11T16:55:54.308Z,3.43
2018-12-11T16:58:23.786Z,4.00
2018-12-11T17:00:52.468Z,8.37
2018-12-11T17:03:21.090Z,10.13
2018-12-11T17:05:49.726Z,4.07
2018-12-11T17:08:18.346Z,5.57
2018-12-11T17:10:46.981Z,5.97
2018-12-11T17:13:15.569Z,4.30
2018-12-11T17:15:44.295Z,8.10
2018-12-11T17:18:12.894Z,6.03
2018-12-11T17:20:41.951Z,5.97
2018-12-11T17:23:10.617Z,5.73
2018-12-11T17:25:39.194Z,3.97
2018-12-11T17:28:07.808Z,4.77
2018-12-11T17:30:36.442Z,4.10
2018-12-11T17:33:05.078Z,6.20
2018-12-11T17:35:33.755Z,5.03
2018-12-11T17:38:02.377Z,4.67
2018-12-11T17:40:31.009Z,4.13
2018-12-11T17:42:59.847Z,4.23
2018-12-11T17:45:29.261Z,4.33
2018-12-11T17:47:58.377Z,5.40
2018-12-11T17:50:26.966Z,7.03
2018-12-11T17:52:55.597Z,3.97
2018-12-11T17:55:24.224Z,3.47
2018-12-11T17:57:53.171Z,4.20
2018-12-11T18:00:21.777Z,7.03
2018-12-11T18:02:50.957Z,3.67
2018-12-11T18:05:19.564Z,8.67
2018-12-11T18:07:48.224Z,5.70
2018-12-11T18:10:16.835Z,4.77
2018-12-11T18:12:45.478Z,3.40
2018-12-11T18:15:14.381Z,4.90
2018-12-11T18:17:43.054Z,5.80
2018-12-11T18:20:11.738Z,3.80
2018-12-11T18:22:40.353Z,4.47
2018-12-11T18:25:09.269Z,6.10
2018-12-11T18:27:37.907Z,3.00
2018-12-11T18:30:07.673Z,3.60
2018-12-11T18:32:36.426Z,2.43
2018-12-11T18:35:07.220Z,3.53
2018-12-11T18:37:35.960Z,6.17
2018-12-11T18:40:06.730Z,4.37
2018-12-11T18:42:35.681Z,3.20
2018-12-11T18:45:05.055Z,2.70
2018-12-11T18:47:33.849Z,3.10
2018-12-11T18:50:06.229Z,4.53
2018-12-11T18:52:34.954Z,4.10
2018-12-11T18:55:05.552Z,5.53
2018-12-11T18:57:35.206Z,4.57
2018-12-11T19:00:04.450Z,3.97
2018-12-11T19:02:33.152Z,4.33
2018-12-11T19:05:01.871Z,4.33
2018-12-11T19:07:30.547Z,6.50
2018-12-11T19:09:59.164Z,6.97
2018-12-11T19:12:27.802Z,4.23
2018-12-11T19:14:56.602Z,7.65
2018-12-11T19:17:25.279Z,5.90
2018-12-11T19:19:54.419Z,7.53
2018-12-11T19:22:23.253Z,6.63
2018-12-11T19:24:54.395Z,10.80
2018-12-11T19:27:24.006Z,6.77
2018-12-11T19:29:52.802Z,7.27
2018-12-11T19:32:21.558Z,7.87
2018-12-11T19:34:50.822Z,10.07
2018-12-11T19:37:19.623Z,7.33
2018-12-11T19:39:48.342Z,6.10
2018-12-11T19:42:17.379Z,8.80
2018-12-11T19:44:46.414Z,13.10
2018-12-11T19:47:16.963Z,24.03
2018-12-11T19:49:47.218Z,16.23
2018-12-11T19:52:16.230Z,21.47
2018-12-11T19:54:46.071Z,19.43
2018-12-11T19:57:22.971Z,21.43
2018-12-11T19:59:51.881Z,27.67
2018-12-11T20:02:20.930Z,19.67
2018-12-11T20:04:49.827Z,24.27
2018-12-11T20:07:19.074Z,19.67
2018-12-11T20:09:53.119Z,14.40
2018-12-11T20:12:24.833Z,21.90
2018-12-11T20:14:53.823Z,14.07
2018-12-11T20:17:22.682Z,16.37
2018-12-11T20:19:51.676Z,15.87
2018-12-11T20:22:20.591Z,16.70
2018-12-11T20:24:50.018Z,18.83
2018-12-11T20:27:19.157Z,23.23
2018-12-11T20:29:48.474Z,16.50
2018-12-11T20:32:18.467Z,16.77
2018-12-11T20:34:47.463Z,14.60
2018-12-11T20:37:16.851Z,17.83
2018-12-11T20:39:45.874Z,17.00
2018-12-11T20:42:15.312Z,14.00
2018-12-11T20:44:44.259Z,20.33
2018-12-11T20:47:13.860Z,19.90
2018-12-11T20:49:42.602Z,18.57
2018-12-11T20:52:11.541Z,27.77
2018-12-11T20:54:40.552Z,21.97
2018-12-11T20:57:09.279Z,17.70
2018-12-11T20:59:37.957Z,20.00
2018-12-11T21:02:06.724Z,20.67
2018-12-11T21:04:35.766Z,29.73
2018-12-11T21:07:11.563Z,17.43
2018-12-11T21:09:40.357Z,18.10
2018-12-11T21:12:09.456Z,21.37
2018-12-11T21:14:38.197Z,19.37
2018-12-11T21:17:06.859Z,20.33
2018-12-11T21:19:35.524Z,21.60
2018-12-11T21:22:04.276Z,18.77
2018-12-11T21:24:33.160Z,19.90
2018-12-11T21:27:02.425Z,16.60
2018-12-11T21:29:32.174Z,21.87
2018-12-11T21:32:01.702Z,17.03
2018-12-11T21:34:30.952Z,14.90
2018-12-11T21:37:00.037Z,10.37
2018-12-11T21:39:29.190Z,13.33
2018-12-11T21:41:57.816Z,10.90
2018-12-11T21:44:26.434Z,10.03
2018-12-11T21:46:56.165Z,13.10
2018-12-11T21:49:25.149Z,18.87
2018-12-11T21:51:56.316Z,25.77
2018-12-11T21:54:24.952Z,19.60
2018-12-11T21:56:53.634Z,22.00
2018-12-11T21:59:22.295Z,30.87
2018-12-11T22:01:50.901Z,28.93
2018-12-11T22:04:19.553Z,30.60
2018-12-11T22:06:48.838Z,33.50
2018-12-11T22:09:17.483Z,37.73
2018-12-11T22:11:46.139Z,36.37
2018-12-11T22:14:14.734Z,38.13
2018-12-11T22:16:43.486Z,29.83
2018-12-11T22:19:12.143Z,32.70
2018-12-11T22:21:41.731Z,28.13
2018-12-11T22:24:10.432Z,30.80
2018-12-11T22:26:39.230Z,25.10
2018-12-11T22:29:07.871Z,23.10
2018-12-11T22:31:36.535Z,25.73
2018-12-11T22:34:05.174Z,21.90
2018-12-11T22:36:33.812Z,22.53
2018-12-11T22:39:02.488Z,24.37
2018-12-11T22:41:31.173Z,18.90
2018-12-11T22:44:00.626Z,18.13
2018-12-11T22:46:29.721Z,19.13
2018-12-11T22:48:58.839Z,20.43
2018-12-11T22:51:28.058Z,15.13
2018-12-11T22:53:56.700Z,16.43
2018-12-11T22:56:25.545Z,14.13
2018-12-11T22:58:54.251Z,15.57
2018-12-11T23:01:22.891Z,22.30
2018-12-11T23:03:51.541Z,17.07
2018-12-11T23:06:21.989Z,19.90
2018-12-11T23:08:51.132Z,20.90
2018-12-11T23:11:20.043Z,17.87
2018-12-11T23:13:48.670Z,18.03
2018-12-11T23:16:17.471Z,18.00
2018-12-11T23:18:46.358Z,20.37
2018-12-11T23:21:15.354Z,19.77
2018-12-11T23:23:44.344Z,16.90
2018-12-11T23:26:13.323Z,17.20
2018-12-11T23:28:41.936Z,21.90
2018-12-11T23:31:12.507Z,17.27
2018-12-11T23:33:41.214Z,16.40
2018-12-11T23:36:12.233Z,14.70
2018-12-11T23:38:42.178Z,17.00
2018-12-11T23:41:14.757Z,17.23
2018-12-11T23:43:43.819Z,15.80
2018-12-11T23:46:14.469Z,14.33
2018-12-11T23:48:45.068Z,13.10
2018-12-11T23:51:14.345Z,15.53
2018-12-11T23:53:43.181Z,18.30
2018-12-11T23:56:25.230Z,12.23
2018-12-11T23:58:54.241Z,21.00
